Time;durP1;ratioP1;P1;durP2;ratioP2;P2;SDS_P1;SDS_P2;PMS_P1;PMS_P2;Temp;Humidity;BMP_temperature;BMP_pressure;BME280_temperature;BME280_humidity;BME280_pressure;Samples;Min_cycle;Max_cycle;Signal;HPM_P1;HPM_P2
2021/08/24 00:04:16;;;;;;;8.60;5.67;;;;;14.30;102088.00;;;;12864235;22;20184;-77
2021/08/24 00:09:19;;;;;;;12.37;6.03;;;;;14.30;102093.00;;;;12864555;22;20654;-77
2021/08/24 00:14:20;;;;;;;6.87;5.23;;;;;14.20;102098.00;;;;12889170;22;20493;-77
2021/08/24 00:19:22;;;;;;;8.77;5.70;;;;;14.10;102097.00;;;;12863276;22;20255;-77
2021/08/24 00:24:23;;;;;;;8.63;5.93;;;;;14.10;102098.00;;;;12889389;22;20478;-77
2021/08/24 00:29:24;;;;;;;8.60;5.80;;;;;14.00;102092.00;;;;12889694;22;20224;-77
2021/08/24 00:34:25;;;;;;;7.97;5.60;;;;;13.90;102100.00;;;;12839901;22;20179;-76
2021/08/24 00:39:39;;;;;;;9.23;5.47;;;;;13.80;102100.00;;;;12845444;22;20260;-76
2021/08/24 00:44:41;;;;;;;11.17;6.87;;;;;13.80;102104.00;;;;12888755;22;20492;-76
2021/08/24 00:49:44;;;;;;;8.77;5.97;;;;;13.70;102105.00;;;;12888729;22;20192;-77
2021/08/24 00:54:46;;;;;;;10.23;6.63;;;;;13.60;102111.00;;;;12889375;22;20212;-77
2021/08/24 00:59:49;;;;;;;12.33;6.13;;;;;13.50;102105.00;;;;12888671;22;20220;-76
2021/08/24 01:04:51;;;;;;;9.17;6.63;;;;;13.40;102096.00;;;;12863245;22;20177;-76
2021/08/24 01:10:16;;;;;;;7.90;6.37;;;;;13.40;102100.00;;;;12864325;22;20625;-76
2021/08/24 01:15:17;;;;;;;9.00;6.47;;;;;13.20;102104.00;;;;12909087;22;20165;-76
2021/08/24 01:20:30;;;;;;;8.70;6.27;;;;;13.20;102099.00;;;;12863877;22;20668;-76
2021/08/24 01:25:37;;;;;;;10.47;6.60;;;;;13.10;102109.00;;;;12888733;22;20174;-77
2021/08/24 01:31:01;;;;;;;7.27;6.57;;;;;13.00;102098.00;;;;12913916;22;20189;-76
2021/08/24 01:36:14;;;;;;;9.70;7.23;;;;;13.00;102106.00;;;;12889519;22;20281;-77
2021/08/24 01:41:47;;;;;;;11.80;7.13;;;;;12.90;102109.00;;;;12889211;22;20609;-76
2021/08/24 01:47:24;;;;;;;14.30;6.97;;;;;12.90;102114.00;;;;12822908;22;20174;-77
2021/08/24 01:52:33;;;;;;;10.93;7.50;;;;;12.80;102121.00;;;;12842325;22;20656;-76
2021/08/24 01:57:45;;;;;;;10.80;7.10;;;;;12.80;102116.00;;;;12865936;22;20178;-76
2021/08/24 02:02:56;;;;;;;10.60;7.40;;;;;12.70;102118.00;;;;12935845;22;20170;-76
2021/08/24 02:08:07;;;;;;;11.20;7.57;;;;;12.60;102127.00;;;;12935749;22;20173;-76
2021/08/24 02:13:13;;;;;;;9.50;7.17;;;;;12.60;102121.00;;;;12888008;22;20197;-76
2021/08/24 02:18:19;;;;;;;11.73;7.43;;;;;12.50;102127.00;;;;12888704;22;20194;-76
2021/08/24 02:23:25;;;;;;;10.53;7.67;;;;;12.40;102128.00;;;;12914168;22;20195;-76
2021/08/24 02:28:33;;;;;;;9.43;7.63;;;;;12.40;102129.00;;;;12910876;22;20166;-76
2021/08/24 02:33:42;;;;;;;10.73;7.63;;;;;12.30;102127.00;;;;12935669;22;20185;-77
2021/08/24 02:38:53;;;;;;;12.90;7.83;;;;;12.30;102136.00;;;;12864936;22;20308;-77
2021/08/24 02:44:22;;;;;;;11.20;7.93;;;;;12.30;102134.00;;;;12864576;22;20529;-76
2021/08/24 02:49:27;;;;;;;11.40;8.07;;;;;12.20;102141.00;;;;12885047;22;20189;-76
2021/08/24 02:54:54;;;;;;;11.83;9.10;;;;;12.10;102146.00;;;;12889177;22;20177;-76
2021/08/24 02:59:55;;;;;;;13.67;8.40;;;;;12.10;102157.00;;;;12862143;22;20178;-76
2021/08/24 03:04:57;;;;;;;12.27;8.20;;;;;12.00;102149.00;;;;12862622;22;20170;-77
2021/08/24 03:10:07;;;;;;;13.47;9.03;;;;;12.00;102153.00;;;;12888598;22;20192;-77
2021/08/24 03:15:51;;;;;;;9.37;7.63;;;;;12.00;102152.00;;;;12864397;22;20174;-77
2021/08/24 03:20:58;;;;;;;10.50;8.27;;;;;11.90;102158.00;;;;12762663;22;20201;-76
2021/08/24 03:26:01;;;;;;;11.37;8.47;;;;;11.80;102145.00;;;;12863884;22;20170;-77
2021/08/24 03:31:03;;;;;;;11.27;8.87;;;;;11.80;102154.00;;;;12865224;22;20205;-76
2021/08/24 03:36:04;;;;;;;12.10;9.23;;;;;11.80;102160.00;;;;12890660;22;20170;-76
2021/08/24 03:41:07;;;;;;;12.20;9.83;;;;;11.70;102152.00;;;;12866172;22;20173;-77
2021/08/24 03:46:08;;;;;;;10.97;9.80;;;;;11.70;102162.00;;;;12889498;22;20191;-76
2021/08/24 03:51:09;;;;;;;13.83;9.13;;;;;11.70;102161.00;;;;12936485;22;20189;-76
2021/08/24 03:56:12;;;;;;;11.63;10.03;;;;;11.60;102164.00;;;;12864307;22;20184;-76
2021/08/24 04:01:16;;;;;;;11.40;9.20;;;;;11.60;102159.00;;;;12935698;22;20165;-76
2021/08/24 04:06:18;;;;;;;12.20;9.40;;;;;11.50;102171.00;;;;12888791;22;20184;-76
2021/08/24 04:11:19;;;;;;;14.43;9.27;;;;;11.50;102172.00;;;;12864332;22;20193;-76
2021/08/24 04:16:20;;;;;;;13.10;9.60;;;;;11.40;102180.00;;;;12889691;22;20190;-76
2021/08/24 04:21:21;;;;;;;12.03;9.33;;;;;11.40;102180.00;;;;12936959;22;20494;-76
2021/08/24 04:26:23;;;;;;;14.43;9.70;;;;;11.40;102183.00;;;;12889922;22;20224;-76
2021/08/24 04:31:24;;;;;;;14.57;11.00;;;;;11.30;102183.00;;;;12890406;22;20193;-76
2021/08/24 04:36:25;;;;;;;19.93;10.67;;;;;11.30;102199.00;;;;12889842;22;20254;-77
2021/08/24 04:41:27;;;;;;;12.83;10.87;;;;;11.30;102192.00;;;;12840840;22;20539;-77
2021/08/24 04:46:28;;;;;;;11.90;10.70;;;;;11.30;102204.00;;;;12865993;22;20172;-77
2021/08/24 04:51:30;;;;;;;15.67;11.47;;;;;11.30;102202.00;;;;12886142;22;20186;-76
2021/08/24 04:56:31;;;;;;;17.07;10.43;;;;;11.30;102214.00;;;;12890127;22;20609;-77
2021/08/24 05:01:32;;;;;;;17.97;11.57;;;;;11.30;102209.00;;;;12936126;22;20363;-77
2021/08/24 05:06:34;;;;;;;16.87;11.47;;;;;11.40;102217.00;;;;12865691;22;20181;-77
2021/08/24 05:11:35;;;;;;;14.93;12.30;;;;;11.50;102205.00;;;;12865451;22;20641;-77
2021/08/24 05:16:38;;;;;;;17.50;12.60;;;;;11.60;102215.00;;;;12888898;22;20197;-77
2021/08/24 05:21:39;;;;;;;18.60;13.63;;;;;11.80;102218.00;;;;12841549;22;20173;-77
2021/08/24 05:26:40;;;;;;;18.47;14.17;;;;;12.00;102227.00;;;;12865835;22;20179;-77
2021/08/24 05:31:42;;;;;;;19.03;14.43;;;;;12.30;102256.00;;;;12890368;22;20197;-77
2021/08/24 05:36:43;;;;;;;17.73;14.87;;;;;12.90;102292.00;;;;12866142;22;20173;-77
2021/08/24 05:41:44;;;;;;;14.97;13.07;;;;;13.30;102309.00;;;;12841551;22;20177;-77
2021/08/24 05:46:45;;;;;;;13.83;11.90;;;;;13.50;102312.00;;;;12911510;22;20284;-77
2021/08/24 05:51:47;;;;;;;15.20;12.23;;;;;13.70;102290.00;;;;12843285;22;20193;-77
2021/08/24 05:56:49;;;;;;;12.93;11.00;;;;;14.00;102273.00;;;;12868174;22;20169;-77
2021/08/24 06:01:51;;;;;;;13.50;11.30;;;;;14.20;102275.00;;;;12866926;22;20177;-77
2021/08/24 06:06:53;;;;;;;13.97;10.10;;;;;14.50;102274.00;;;;12867162;22;20184;-77
2021/08/24 06:11:54;;;;;;;11.67;9.60;;;;;14.70;102277.00;;;;12892398;22;20565;-77
2021/08/24 06:16:59;;;;;;;10.57;9.20;;;;;15.10;102300.00;;;;12891594;22;20193;-77
2021/08/24 06:22:01;;;;;;;9.00;8.10;;;;;15.60;102319.00;;;;12891263;22;20180;-77
2021/08/24 06:27:04;;;;;;;8.50;6.97;;;;;16.00;102330.00;;;;12892676;22;20223;-77
2021/08/24 06:32:07;;;;;;;9.47;7.77;;;;;16.40;102296.00;;;;12891770;22;20506;-77
2021/08/24 06:37:08;;;;;;;9.95;6.32;;;;;16.70;102275.00;;;;12892390;22;20181;-77
2021/08/24 06:42:09;;;;;;;8.18;6.13;;;;;17.00;102274.00;;;;12891631;23;20169;-76
2021/08/24 06:47:11;;;;;;;6.40;5.38;;;;;17.20;102272.00;;;;12891113;22;20169;-78
2021/08/24 06:52:12;;;;;;;5.63;5.07;;;;;17.40;102262.00;;;;12912662;22;20240;-77
2021/08/24 06:57:13;;;;;;;9.77;5.30;;;;;17.70;102271.00;;;;12867227;22;20169;-77
2021/08/24 07:02:14;;;;;;;4.97;4.40;;;;;18.00;102252.00;;;;12868523;22;20169;-77
2021/08/24 07:07:17;;;;;;;6.60;5.03;;;;;18.30;102250.00;;;;12894017;22;20166;-77
2021/08/24 07:12:18;;;;;;;9.50;4.57;;;;;18.40;102247.00;;;;12868622;22;20197;-77
2021/08/24 07:17:20;;;;;;;10.07;5.13;;;;;18.60;102235.00;;;;12893354;22;20259;-78
2021/08/24 07:22:21;;;;;;;8.40;4.93;;;;;18.90;102231.00;;;;12869201;22;20166;-77
2021/08/24 07:27:23;;;;;;;6.18;4.70;;;;;18.90;102259.00;;;;12919184;22;20192;-77
2021/08/24 07:32:24;;;;;;;7.20;5.07;;;;;19.00;102288.00;;;;12918015;22;20263;-78
2021/08/24 07:37:26;;;;;;;6.70;4.80;;;;;19.20;102281.00;;;;12893495;22;20173;-77
2021/08/24 07:42:27;;;;;;;7.35;5.38;;;;;19.40;102294.00;;;;12893334;22;20173;-77
2021/08/24 07:47:28;;;;;;;7.68;5.40;;;;;19.70;102258.00;;;;12893420;22;20165;-77
2021/08/24 07:52:29;;;;;;;7.63;5.10;;;;;19.90;102286.00;;;;12885355;22;20194;-77
2021/08/24 07:57:31;;;;;;;6.45;4.88;;;;;20.10;102271.00;;;;12888347;22;20260;-77
2021/08/24 08:02:32;;;;;;;8.38;5.10;;;;;20.50;102273.00;;;;12889425;23;20173;-78
2021/08/24 08:07:33;;;;;;;7.35;4.68;;;;;20.80;102265.00;;;;12889621;22;20223;-78
2021/08/24 08:12:35;;;;;;;6.05;4.93;;;;;21.10;102273.00;;;;12865130;22;20193;-77
2021/08/24 08:17:37;;;;;;;5.40;4.18;;;;;21.40;102275.00;;;;12892999;22;20502;-77
2021/08/24 08:22:39;;;;;;;5.97;4.50;;;;;21.70;102290.00;;;;12875183;22;20260;-77
2021/08/24 08:27:40;;;;;;;3.92;3.53;;;;;21.90;102285.00;;;;12885327;22;20244;-77
2021/08/24 08:32:43;;;;;;;5.28;4.05;;;;;22.20;102298.00;;;;12888976;22;20204;-77
2021/08/24 08:37:45;;;;;;;7.55;3.97;;;;;22.60;102299.00;;;;12914497;22;20177;-77
2021/08/24 08:42:59;;;;;;;8.65;5.13;;;;;22.90;102307.00;;;;12887857;22;20178;-77
2021/08/24 08:48:21;;;;;;;5.22;3.38;;;;;23.20;102300.00;;;;12886985;22;20169;-77
2021/08/24 08:53:40;;;;;;;5.25;3.60;;;;;23.40;102307.00;;;;12933268;22;20264;-77
2021/08/24 08:59:10;;;;;;;7.70;4.05;;;;;23.70;102319.00;;;;12862274;22;20177;-76
2021/08/24 09:04:30;;;;;;;6.93;3.53;;;;;24.00;102314.00;;;;12865082;22;20260;-78
2021/08/24 09:09:33;;;;;;;5.10;3.13;;;;;24.40;102321.00;;;;12865098;22;20256;-77
2021/08/24 09:14:40;;;;;;;6.30;3.65;;;;;24.70;102316.00;;;;12890091;22;20174;-77
2021/08/24 09:19:48;;;;;;;4.38;3.15;;;;;24.80;102316.00;;;;12887441;22;20197;-78
2021/08/24 09:24:50;;;;;;;4.55;2.78;;;;;25.00;102313.00;;;;12888671;22;20229;-78
2021/08/24 09:29:52;;;;;;;3.45;3.15;;;;;25.10;102311.00;;;;12889054;22;20189;-78
2021/08/24 09:35:05;;;;;;;3.60;2.75;;;;;25.30;102310.00;;;;12839741;22;20845;-77
2021/08/24 09:40:10;;;;;;;3.95;2.58;;;;;25.40;102304.00;;;;12912379;23;20181;-78
2021/08/24 09:45:26;;;;;;;5.57;2.42;;;;;25.60;102306.00;;;;12888007;22;20237;-77
2021/08/24 09:50:37;;;;;;;3.53;2.50;;;;;25.70;102297.00;;;;12886529;22;20548;-78
2021/08/24 09:55:47;;;;;;;4.07;2.40;;;;;25.80;102298.00;;;;12905281;22;20182;-78
2021/08/24 10:01:03;;;;;;;4.63;2.58;;;;;26.00;102296.00;;;;12908838;22;20248;-77
2021/08/24 10:06:23;;;;;;;3.85;2.72;;;;;26.10;102291.00;;;;12912896;22;20688;-77
2021/08/24 10:11:32;;;;;;;5.03;2.78;;;;;26.30;102294.00;;;;12863162;22;20263;-78
2021/08/24 10:16:34;;;;;;;6.70;2.60;;;;;26.40;102281.00;;;;12886702;22;20217;-78
2021/08/24 10:21:41;;;;;;;3.45;2.38;;;;;26.60;102285.00;;;;12887884;22;20252;-77
2021/08/24 10:26:42;;;;;;;6.50;2.60;;;;;26.50;102274.00;;;;12886160;22;20228;-77
2021/08/24 10:31:49;;;;;;;2.95;2.30;;;;;26.60;102278.00;;;;12860770;22;20193;-78
2021/08/24 10:37:11;;;;;;;5.20;2.72;;;;;27.00;102263.00;;;;12935109;22;20713;-78
2021/08/24 10:42:15;;;;;;;5.22;2.50;;;;;27.50;102262.00;;;;12891549;22;20181;-78
2021/08/24 10:47:23;;;;;;;4.03;2.10;;;;;27.60;102259.00;;;;12864606;22;20170;-77
2021/08/24 10:53:18;;;;;;;4.95;2.13;;;;;27.90;102268.00;;;;12869639;23;20259;-78
2021/08/24 10:58:31;;;;;;;2.85;2.20;;;;;27.70;102266.00;;;;12730243;22;20238;-77
2021/08/24 11:04:10;;;;;;;2.75;1.77;;;;;26.70;102261.00;;;;12896613;22;20177;-78
2021/08/24 11:09:30;;;;;;;4.97;2.33;;;;;27.00;102257.00;;;;12896849;22;20744;-78
2021/08/24 11:14:59;;;;;;;2.88;1.90;;;;;27.00;102243.00;;;;12876912;22;20184;-78
2021/08/24 11:20:26;;;;;;;4.22;3.22;;;;;26.90;102254.00;;;;12847804;22;20617;-78
2021/08/24 11:25:40;;;;;;;5.38;3.28;;;;;26.90;102251.00;;;;12871840;22;20527;-78
2021/08/24 11:30:43;;;;;;;5.68;2.28;;;;;27.40;102246.00;;;;12870636;22;20208;-78
2021/08/24 11:36:02;;;;;;;2.47;1.88;;;;;26.30;102255.00;;;;12942556;22;20673;-79
2021/08/24 11:41:05;;;;;;;4.00;2.10;;;;;27.40;102235.00;;;;12871345;22;20181;-78
2021/08/24 11:46:17;;;;;;;3.95;2.10;;;;;27.20;102245.00;;;;12847571;22;20296;-78
2021/08/24 11:51:26;;;;;;;4.07;2.53;;;;;27.50;102230.00;;;;12947570;22;20184;-78
2021/08/24 11:56:49;;;;;;;3.20;2.50;;;;;26.20;102232.00;;;;12898859;22;20165;-78
2021/08/24 12:01:51;;;;;;;4.57;2.30;;;;;25.90;102229.00;;;;12899527;22;20170;-77
2021/08/24 12:07:00;;;;;;;5.38;2.78;;;;;26.90;102219.00;;;;12874747;22;20169;-78
2021/08/24 12:12:04;;;;;;;3.92;2.40;;;;;26.80;102233.00;;;;12901637;22;20284;-77
2021/08/24 12:17:23;;;;;;;4.18;2.45;;;;;26.70;102224.00;;;;12875825;22;20208;-78
2021/08/24 12:22:42;;;;;;;5.25;2.55;;;;;27.20;102215.00;;;;12900782;22;20169;-78
2021/08/24 12:27:53;;;;;;;3.90;2.38;;;;;27.10;102219.00;;;;12925738;22;20180;-78
2021/08/24 12:32:54;;;;;;;5.80;2.55;;;;;27.00;102221.00;;;;12878684;22;20197;-78
2021/08/24 12:37:59;;;;;;;3.45;2.42;;;;;25.50;102208.00;;;;12926691;22;20228;-78
2021/08/24 12:43:01;;;;;;;4.65;2.13;;;;;26.10;102203.00;;;;12902187;22;20178;-78
2021/08/24 12:48:05;;;;;;;4.88;2.05;;;;;26.50;102201.00;;;;12900912;22;20169;-78
2021/08/24 12:53:34;;;;;;;3.17;2.38;;;;;27.00;102197.00;;;;12875663;22;20193;-78
2021/08/24 12:58:58;;;;;;;3.22;2.15;;;;;27.10;102196.00;;;;12920161;22;20165;-78
2021/08/24 13:04:08;;;;;;;7.60;2.25;;;;;27.60;102183.00;;;;12875959;22;20173;-78
2021/08/24 13:09:18;;;;;;;3.50;2.38;;;;;27.70;102189.00;;;;12877895;22;20328;-78
2021/08/24 13:14:52;;;;;;;3.65;1.90;;;;;27.00;102191.00;;;;12852154;22;20280;-78
2021/08/24 13:19:56;;;;;;;3.78;2.08;;;;;25.50;102184.00;;;;12889799;22;20198;-78
2021/08/24 13:24:58;;;;;;;3.65;2.20;;;;;26.60;102181.00;;;;12901284;22;20178;-78
2021/08/24 13:30:10;;;;;;;2.83;1.75;;;;;26.90;102168.00;;;;12940658;22;20220;-78
2021/08/24 13:35:19;;;;;;;5.63;2.47;;;;;26.60;102171.00;;;;12871185;22;20244;-78
2021/08/24 13:40:28;;;;;;;6.03;1.88;;;;;26.80;102153.00;;;;12899184;22;20177;-77
2021/08/24 13:45:32;;;;;;;3.03;2.13;;;;;27.40;102156.00;;;;12945392;22;20851;-78
2021/08/24 13:50:36;;;;;;;3.58;2.05;;;;;27.60;102155.00;;;;12897059;22;20256;-77
2021/08/24 13:55:39;;;;;;;3.50;1.95;;;;;27.80;102151.00;;;;12872608;22;20181;-77
2021/08/24 14:00:42;;;;;;;4.40;2.50;;;;;27.80;102157.00;;;;12870157;22;20181;-78
2021/08/24 14:05:43;;;;;;;3.33;2.20;;;;;27.70;102148.00;;;;12893939;22;20178;-78
2021/08/24 14:10:53;;;;;;;3.75;2.28;;;;;27.80;102148.00;;;;12894658;22;20260;-78
2021/08/24 14:15:56;;;;;;;5.32;2.20;;;;;27.40;102147.00;;;;12897569;22;20211;-78
2021/08/24 14:21:09;;;;;;;6.63;2.00;;;;;26.50;102144.00;;;;12845029;22;20178;-78
2021/08/24 14:26:26;;;;;;;5.07;2.30;;;;;26.20;102155.00;;;;12869960;22;20188;-77
2021/08/24 14:31:33;;;;;;;4.63;2.40;;;;;26.20;102141.00;;;;12893722;22;20192;-78
2021/08/24 14:36:36;;;;;;;5.32;2.47;;;;;29.80;102136.00;;;;12942449;22;20176;-77
2021/08/24 14:41:48;;;;;;;4.60;2.22;;;;;31.40;102136.00;;;;12894260;22;20182;-78
2021/08/24 14:46:53;;;;;;;4.40;2.17;;;;;31.80;102134.00;;;;12869062;22;20285;-78
2021/08/24 14:51:55;;;;;;;4.25;2.75;;;;;33.30;102138.00;;;;12867578;22;20719;-78
2021/08/24 14:57:22;;;;;;;4.43;3.22;;;;;34.30;102138.00;;;;12862088;22;20173;-79
2021/08/24 15:02:42;;;;;;;3.85;2.92;;;;;34.70;102115.00;;;;12938699;22;20169;-78
2021/08/24 15:08:13;;;;;;;7.97;6.22;;;;;28.00;102141.00;;;;12873656;22;20199;-79
2021/08/24 15:13:21;;;;;;;9.02;6.28;;;;;26.60;102134.00;;;;12872564;22;20284;-78
2021/08/24 15:18:37;;;;;;;4.93;3.75;;;;;25.60;102140.00;;;;12850465;22;20205;-79
2021/08/24 15:23:39;;;;;;;7.25;3.40;;;;;24.90;102137.00;;;;12950338;22;20165;-80
2021/08/24 15:28:40;;;;;;;5.25;3.33;;;;;24.30;102133.00;;;;12876095;22;20173;-79
2021/08/24 15:33:47;;;;;;;9.02;4.40;;;;;24.10;102122.00;;;;12901685;22;20276;-79
2021/08/24 15:38:48;;;;;;;13.75;7.93;;;;;24.00;102121.00;;;;12878667;22;20177;-80
2021/08/24 15:44:11;;;;;;;7.32;2.67;;;;;24.00;102126.00;;;;12898158;22;20200;-78
2021/08/24 15:49:16;;;;;;;14.23;11.55;;;;;23.80;102135.00;;;;12871667;22;20170;-77
2021/08/24 15:54:18;;;;;;;6.35;5.28;;;;;23.60;102133.00;;;;12875685;22;20198;-80
2021/08/24 15:59:21;;;;;;;11.30;8.90;;;;;23.40;102117.00;;;;12904559;22;20185;-79
2021/08/24 16:04:22;;;;;;;9.90;7.93;;;;;23.20;102113.00;;;;12881175;22;20209;-80
2021/08/24 16:09:24;;;;;;;12.82;8.75;;;;;22.90;102105.00;;;;12903820;22;20260;-79
2021/08/24 16:14:26;;;;;;;6.20;3.95;;;;;22.80;102106.00;;;;12877632;22;20197;-79
2021/08/24 16:19:27;;;;;;;5.43;2.78;;;;;22.70;102100.00;;;;12902938;22;20414;-79
2021/08/24 16:24:31;;;;;;;11.55;7.43;;;;;22.50;102094.00;;;;12904785;22;20184;-80
2021/08/24 16:29:33;;;;;;;33.25;21.48;;;;;22.40;102095.00;;;;12904688;22;20225;-79
2021/08/24 16:34:34;;;;;;;13.30;10.18;;;;;22.40;102087.00;;;;12876753;22;20197;-79
2021/08/24 16:39:35;;;;;;;7.40;5.38;;;;;22.30;102084.00;;;;12853769;22;20177;-79
2021/08/24 16:44:39;;;;;;;35.47;27.88;;;;;22.20;102086.00;;;;12854728;22;20264;-79
2021/08/24 16:49:41;;;;;;;14.77;11.63;;;;;22.10;102079.00;;;;12878368;22;20234;-80
2021/08/24 16:54:42;;;;;;;8.65;5.50;;;;;22.00;102083.00;;;;12874578;22;20201;-79
2021/08/24 16:59:43;;;;;;;26.08;20.15;;;;;21.80;102083.00;;;;12853930;22;20184;-79
2021/08/24 17:04:44;;;;;;;6.15;4.68;;;;;21.70;102087.00;;;;12903786;22;20252;-79
2021/08/24 17:09:45;;;;;;;5.07;3.38;;;;;21.60;102091.00;;;;12904379;22;20165;-79
2021/08/24 17:14:47;;;;;;;5.72;2.92;;;;;21.50;102095.00;;;;12901890;22;20173;-79
2021/08/24 17:19:48;;;;;;;6.53;3.70;;;;;21.50;102091.00;;;;12903839;22;20189;-79
2021/08/24 17:24:50;;;;;;;4.38;3.55;;;;;21.40;102085.00;;;;12904072;22;20169;-79
2021/08/24 17:29:51;;;;;;;6.38;4.40;;;;;21.20;102088.00;;;;12880712;22;20173;-78
2021/08/24 17:34:52;;;;;;;4.90;3.10;;;;;21.10;102097.00;;;;12953182;22;20169;-79
2021/08/24 17:39:54;;;;;;;5.50;3.85;;;;;21.00;102105.00;;;;12973860;22;20180;-79
2021/08/24 17:44:57;;;;;;;5.25;3.60;;;;;20.80;102103.00;;;;12843548;22;20179;-79
2021/08/24 17:50:03;;;;;;;5.90;3.28;;;;;20.70;102101.00;;;;12838997;22;20177;-79
2021/08/24 17:55:05;;;;;;;6.03;2.97;;;;;20.60;102100.00;;;;12894351;22;20685;-78
2021/08/24 18:00:07;;;;;;;5.75;3.40;;;;;20.40;102091.00;;;;12866573;22;20577;-78
2021/08/24 18:05:33;;;;;;;6.50;3.92;;;;;20.20;102092.00;;;;12867846;22;20522;-79
2021/08/24 18:10:35;;;;;;;5.00;2.75;;;;;20.00;102091.00;;;;12867588;22;20288;-79
2021/08/24 18:15:38;;;;;;;10.70;6.43;;;;;19.90;102102.00;;;;12892271;22;20193;-79
2021/08/24 18:20:39;;;;;;;14.18;8.20;;;;;19.70;102097.00;;;;12868658;22;20604;-79
2021/08/24 18:25:42;;;;;;;5.80;3.15;;;;;19.50;102097.00;;;;12892594;22;20170;-78
2021/08/24 18:30:45;;;;;;;7.40;3.30;;;;;19.30;102099.00;;;;12869369;22;20190;-78
2021/08/24 18:35:47;;;;;;;6.72;3.88;;;;;19.00;102089.00;;;;12870558;22;20173;-79
2021/08/24 18:40:50;;;;;;;5.75;3.72;;;;;18.80;102089.00;;;;12869611;22;20606;-78
2021/08/24 18:45:52;;;;;;;5.60;3.15;;;;;18.50;102098.00;;;;12893741;22;20177;-78
2021/08/24 18:50:57;;;;;;;3.47;2.55;;;;;18.30;102099.00;;;;12893663;22;20648;-78
2021/08/24 18:56:01;;;;;;;5.30;3.22;;;;;18.00;102103.00;;;;12874741;22;20193;-79
2021/08/24 19:01:09;;;;;;;4.53;3.50;;;;;17.80;102108.00;;;;12876989;22;20661;-79
2021/08/24 19:06:11;;;;;;;7.30;3.35;;;;;17.70;102110.00;;;;12900055;23;20185;-79
2021/08/24 19:11:26;;;;;;;9.15;3.92;;;;;17.50;102104.00;;;;12874360;22;20517;-79
2021/08/24 19:16:29;;;;;;;6.13;4.38;;;;;17.30;102110.00;;;;12875082;22;20724;-78
2021/08/24 19:21:30;;;;;;;5.30;3.22;;;;;17.20;102125.00;;;;12898419;22;20173;-78
2021/08/24 19:26:31;;;;;;;9.63;4.93;;;;;17.00;102128.00;;;;12872520;22;20612;-78
2021/08/24 19:31:33;;;;;;;5.75;4.05;;;;;16.90;102127.00;;;;12899163;22;20216;-78
2021/08/24 19:36:38;;;;;;;6.75;4.00;;;;;16.70;102126.00;;;;12898803;22;20256;-78
2021/08/24 19:41:39;;;;;;;21.98;10.68;;;;;16.60;102117.00;;;;12898102;22;20885;-78
2021/08/24 19:46:41;;;;;;;8.65;4.47;;;;;16.40;102115.00;;;;12847326;22;20173;-78
2021/08/24 19:51:43;;;;;;;31.90;17.30;;;;;16.30;102113.00;;;;12897860;22;20217;-79
2021/08/24 19:56:45;;;;;;;9.90;5.90;;;;;16.20;102109.00;;;;12873945;22;20227;-78
2021/08/24 20:01:47;;;;;;;20.73;11.37;;;;;16.20;102127.00;;;;12897974;22;20173;-78
2021/08/24 20:06:48;;;;;;;21.53;11.07;;;;;16.00;102126.00;;;;12872439;22;20177;-78
2021/08/24 20:11:49;;;;;;;14.13;8.03;;;;;15.90;102128.00;;;;12874739;22;20255;-78
2021/08/24 20:16:51;;;;;;;10.00;5.27;;;;;15.80;102128.00;;;;12898592;22;20192;-78
2021/08/24 20:21:52;;;;;;;5.93;4.10;;;;;15.70;102133.00;;;;12848545;22;20174;-78
2021/08/24 20:26:53;;;;;;;8.37;4.97;;;;;15.60;102130.00;;;;12847838;22;20176;-78
2021/08/24 20:31:55;;;;;;;8.20;4.90;;;;;15.40;102127.00;;;;12873752;22;20292;-78
2021/08/24 20:36:57;;;;;;;5.73;4.17;;;;;15.30;102127.00;;;;12851161;22;20178;-78
2021/08/24 20:41:59;;;;;;;6.50;3.93;;;;;15.20;102129.00;;;;12875265;22;20201;-78
2021/08/24 20:47:01;;;;;;;9.13;4.20;;;;;15.00;102133.00;;;;12872544;22;20598;-78
2021/08/24 20:52:03;;;;;;;7.03;4.60;;;;;14.90;102140.00;;;;12873066;22;20211;-78
2021/08/24 20:57:04;;;;;;;7.20;4.77;;;;;14.80;102142.00;;;;12898227;22;20178;-78
2021/08/24 21:02:05;;;;;;;7.27;4.57;;;;;14.70;102135.00;;;;12898487;22;20173;-78
2021/08/24 21:07:07;;;;;;;6.93;4.40;;;;;14.60;102130.00;;;;12873753;22;20605;-78
2021/08/24 21:12:08;;;;;;;6.30;4.63;;;;;14.50;102128.00;;;;12898675;22;20648;-78
2021/08/24 21:17:09;;;;;;;5.87;4.17;;;;;14.40;102128.00;;;;12923724;22;20247;-78
2021/08/24 21:22:11;;;;;;;7.80;4.80;;;;;14.30;102133.00;;;;12897702;22;20171;-79
2021/08/24 21:27:12;;;;;;;7.23;4.43;;;;;14.20;102118.00;;;;12870551;22;20165;-78
2021/08/24 21:32:13;;;;;;;6.67;4.63;;;;;14.10;102121.00;;;;12871019;22;20228;-77
2021/08/24 21:37:17;;;;;;;7.77;4.50;;;;;14.00;102121.00;;;;12848427;22;20173;-77
2021/08/24 21:42:18;;;;;;;6.07;4.93;;;;;13.90;102113.00;;;;12939741;22;20165;-76
2021/08/24 21:47:20;;;;;;;7.27;5.30;;;;;13.80;102121.00;;;;12893790;22;20281;-77
2021/08/24 21:52:21;;;;;;;7.43;5.03;;;;;13.70;102108.00;;;;12894369;22;20825;-77
2021/08/24 21:57:22;;;;;;;5.80;4.70;;;;;13.60;102112.00;;;;12894160;22;20173;-77
2021/08/24 22:02:24;;;;;;;7.63;5.10;;;;;13.50;102115.00;;;;12869537;22;20177;-77
2021/08/24 22:07:25;;;;;;;8.73;4.70;;;;;13.40;102109.00;;;;12845173;22;20173;-77
2021/08/24 22:12:27;;;;;;;8.87;5.13;;;;;13.30;102107.00;;;;12869674;22;20203;-77
2021/08/24 22:17:29;;;;;;;7.43;4.93;;;;;13.20;102114.00;;;;12869032;22;20197;-79
2021/08/24 22:22:30;;;;;;;8.47;5.23;;;;;13.20;102116.00;;;;12893951;22;20674;-77
2021/08/24 22:27:32;;;;;;;11.87;6.20;;;;;13.10;102107.00;;;;12893538;22;20169;-77
2021/08/24 22:33:05;;;;;;;16.47;11.23;;;;;13.00;102125.00;;;;12868102;22;20696;-76
2021/08/24 22:38:06;;;;;;;16.97;10.40;;;;;13.00;102119.00;;;;12893010;22;20166;-77
2021/08/24 22:43:07;;;;;;;17.90;11.10;;;;;12.90;102112.00;;;;12867584;22;20189;-77
2021/08/24 22:48:09;;;;;;;17.90;12.93;;;;;12.90;102114.00;;;;12894228;22;20568;-77
2021/08/24 22:53:10;;;;;;;19.97;13.10;;;;;12.80;102111.00;;;;12939217;22;20259;-77
2021/08/24 22:58:12;;;;;;;14.33;8.50;;;;;12.70;102103.00;;;;12892385;22;20233;-77
2021/08/24 23:03:13;;;;;;;9.43;6.60;;;;;12.70;102104.00;;;;12868720;22;20197;-77
2021/08/24 23:08:14;;;;;;;7.20;5.70;;;;;12.60;102104.00;;;;12843789;22;20173;-76
2021/08/24 23:13:16;;;;;;;12.20;6.00;;;;;12.60;102097.00;;;;12867285;22;20208;-77
2021/08/24 23:18:17;;;;;;;7.00;5.10;;;;;12.50;102087.00;;;;12867406;22;20245;-77
2021/08/24 23:23:18;;;;;;;7.23;4.77;;;;;12.30;102089.00;;;;12891760;22;20780;-77
2021/08/24 23:28:20;;;;;;;9.27;5.33;;;;;12.30;102089.00;;;;12866473;22;20176;-77
2021/08/24 23:33:21;;;;;;;8.97;5.27;;;;;12.20;102082.00;;;;12892401;22;20651;-77
2021/08/24 23:38:23;;;;;;;7.93;5.50;;;;;12.20;102083.00;;;;12841176;22;20176;-77
2021/08/24 23:43:24;;;;;;;6.37;5.40;;;;;12.10;102073.00;;;;12894599;22;20177;-77
2021/08/24 23:48:26;;;;;;;8.70;5.73;;;;;12.00;102061.00;;;;12869237;22;20204;-77
2021/08/24 23:53:27;;;;;;;7.63;5.50;;;;;12.00;102059.00;;;;12869425;22;20204;-77
2021/08/24 23:58:29;;;;;;;8.00;5.47;;;;;12.00;102065.00;;;;12868774;22;20252;-77
